createdAt,value
2023-04-21T00:01:36.399Z,8.12
2023-04-21T00:04:23.397Z,7.95
2023-04-21T00:07:10.570Z,8.07
2023-04-21T00:09:57.535Z,8.06
2023-04-21T00:12:44.651Z,8.03
2023-04-21T00:15:31.533Z,8.01
2023-04-21T00:18:18.491Z,8.01
2023-04-21T00:21:05.334Z,7.99
2023-04-21T00:23:53.061Z,7.87
2023-04-21T00:26:39.942Z,7.95
2023-04-21T00:29:27.763Z,7.92
2023-04-21T00:32:14.601Z,7.89
2023-04-21T00:35:01.769Z,7.85
2023-04-21T00:37:48.602Z,7.84
2023-04-21T00:40:36.004Z,7.81
2023-04-21T00:43:27.941Z,7.69
2023-04-21T00:46:14.958Z,7.74
2023-04-21T00:49:01.795Z,7.70
2023-04-21T00:51:49.372Z,7.33
2023-04-21T00:54:37.516Z,7.67
2023-04-21T00:57:25.128Z,7.65
2023-04-21T01:00:14.026Z,7.12
2023-04-21T01:03:01.451Z,7.63
2023-04-21T01:05:48.500Z,7.56
2023-04-21T01:08:35.753Z,7.61
2023-04-21T01:11:30.240Z,7.60
2023-04-21T01:14:18.745Z,7.56
2023-04-21T01:17:05.685Z,7.56
2023-04-21T01:19:58.769Z,7.52
2023-04-21T01:22:46.732Z,7.50
2023-04-21T01:25:33.758Z,7.46
2023-04-21T01:28:20.742Z,7.32
2023-04-21T01:31:07.720Z,7.40
2023-04-21T01:33:55.225Z,7.02
2023-04-21T01:36:42.406Z,7.33
2023-04-21T01:39:29.480Z,7.29
2023-04-21T01:42:16.929Z,7.26
2023-04-21T01:45:03.945Z,7.08
2023-04-21T01:47:51.868Z,7.21
2023-04-21T01:50:38.894Z,7.18
2023-04-21T01:53:26.030Z,7.16
2023-04-21T01:56:13.146Z,7.14
2023-04-21T01:59:00.184Z,7.11
2023-04-21T02:01:47.186Z,7.08
2023-04-21T02:04:34.372Z,6.99
2023-04-21T02:07:21.736Z,6.76
2023-04-21T02:10:08.732Z,6.98
2023-04-21T02:12:55.739Z,6.95
2023-04-21T02:15:42.945Z,6.91
2023-04-21T02:18:49.746Z,6.92
2023-04-21T02:21:37.110Z,6.86
2023-04-21T02:24:24.356Z,6.87
2023-04-21T02:27:13.389Z,6.84
2023-04-21T02:30:00.337Z,6.81
2023-04-21T02:32:47.674Z,6.76
2023-04-21T02:35:34.666Z,6.77
2023-04-21T02:38:22.033Z,6.75
2023-04-21T02:41:09.077Z,6.74
2023-04-21T02:43:56.108Z,6.73
2023-04-21T02:46:43.197Z,6.58
2023-04-21T02:49:30.619Z,6.58
2023-04-21T02:52:18.655Z,6.67
2023-04-21T02:55:05.737Z,6.68
2023-04-21T02:57:52.807Z,6.65
2023-04-21T03:00:42.747Z,6.56
2023-04-21T03:03:30.395Z,6.33
2023-04-21T03:06:22.393Z,6.59
2023-04-21T03:09:09.563Z,6.57
2023-04-21T03:11:56.470Z,6.51
2023-04-21T03:14:43.379Z,6.41
2023-04-21T03:17:32.919Z,6.10
2023-04-21T03:20:20.550Z,6.50
2023-04-21T03:23:07.551Z,6.47
2023-04-21T03:25:54.669Z,6.48
2023-04-21T03:28:41.733Z,6.45
2023-04-21T03:31:28.751Z,6.25
2023-04-21T03:34:15.932Z,6.38
2023-04-21T03:37:03.225Z,6.33
2023-04-21T03:39:50.238Z,6.34
2023-04-21T03:42:38.339Z,6.28
2023-04-21T03:45:26.845Z,6.31
2023-04-21T03:48:14.781Z,6.23
2023-04-21T03:51:01.657Z,6.29
2023-04-21T03:53:48.710Z,6.27
2023-04-21T03:56:35.533Z,6.26
2023-04-21T03:59:22.655Z,6.19
2023-04-21T04:02:09.591Z,6.01
2023-04-21T04:04:56.704Z,6.13
2023-04-21T04:07:43.665Z,6.22
2023-04-21T04:10:30.924Z,6.25
2023-04-21T04:13:17.718Z,6.24
2023-04-21T04:16:04.754Z,6.28
2023-04-21T04:18:52.053Z,6.29
2023-04-21T04:21:39.084Z,6.29
2023-04-21T04:24:26.543Z,6.36
2023-04-21T04:27:13.983Z,6.28
2023-04-21T04:30:01.021Z,6.42
2023-04-21T04:32:48.106Z,6.51
2023-04-21T04:35:34.956Z,6.56
2023-04-21T04:38:22.191Z,6.54
2023-04-21T04:41:15.568Z,6.67
2023-04-21T04:44:03.469Z,6.74
2023-04-21T04:46:51.250Z,6.78
2023-04-21T04:49:38.325Z,6.85
2023-04-21T04:52:25.267Z,6.90
2023-04-21T04:55:12.518Z,6.97
2023-04-21T04:57:59.583Z,7.02
2023-04-21T05:00:46.599Z,7.12
2023-04-21T05:03:33.523Z,7.20
2023-04-21T05:06:20.764Z,7.28
2023-04-21T05:09:07.598Z,7.33
2023-04-21T05:11:54.574Z,7.47
2023-04-21T05:14:41.390Z,7.54
2023-04-21T05:17:28.528Z,7.21
2023-04-21T05:20:15.559Z,7.67
2023-04-21T05:23:02.684Z,7.27
2023-04-21T05:25:49.514Z,7.86
2023-04-21T05:28:36.620Z,7.93
2023-04-21T05:31:23.506Z,7.99
2023-04-21T05:34:10.530Z,7.96
2023-04-21T05:36:57.329Z,8.11
2023-04-21T05:39:47.005Z,8.19
2023-04-21T05:42:34.291Z,8.27
2023-04-21T05:45:22.449Z,8.34
2023-04-21T05:48:10.771Z,8.38
2023-04-21T05:50:58.809Z,8.37
2023-04-21T05:53:45.811Z,8.49
2023-04-21T05:56:33.295Z,8.55
2023-04-21T05:59:20.228Z,8.57
2023-04-21T06:02:07.578Z,8.66
2023-04-21T06:04:54.826Z,8.74
2023-04-21T06:07:42.040Z,8.79
2023-04-21T06:10:30.215Z,8.80
2023-04-21T06:13:17.412Z,8.91
2023-04-21T06:16:04.446Z,8.97
2023-04-21T06:18:51.601Z,9.02
2023-04-21T06:21:38.780Z,9.06
2023-04-21T06:24:26.184Z,9.11
2023-04-21T06:27:13.054Z,9.16
2023-04-21T06:30:00.545Z,9.21
2023-04-21T06:32:47.478Z,9.26
2023-04-21T06:35:35.027Z,9.24
2023-04-21T06:38:21.809Z,9.37
2023-04-21T06:41:08.953Z,9.23
2023-04-21T06:43:55.932Z,9.48
2023-04-21T06:46:42.955Z,9.54
2023-04-21T06:49:30.238Z,9.61
2023-04-21T06:52:18.283Z,9.66
2023-04-21T06:55:06.820Z,9.68
2023-04-21T06:57:53.930Z,9.76
2023-04-21T07:00:40.839Z,9.80
2023-04-21T07:03:27.982Z,9.85
2023-04-21T07:06:14.782Z,9.90
2023-04-21T07:09:01.912Z,9.95
2023-04-21T07:11:48.756Z,9.99
2023-04-21T07:14:36.048Z,9.84
2023-04-21T07:17:22.925Z,10.02
2023-04-21T07:20:10.141Z,10.10
2023-04-21T07:22:57.186Z,9.87
2023-04-21T07:25:44.274Z,10.19
2023-04-21T07:28:31.131Z,10.25
2023-04-21T07:31:18.171Z,10.29
2023-04-21T07:34:05.058Z,10.37
2023-04-21T07:36:52.019Z,10.43
2023-04-21T07:39:38.940Z,10.48
2023-04-21T07:42:26.029Z,10.51
2023-04-21T07:45:13.218Z,10.59
2023-04-21T07:48:00.365Z,10.63
2023-04-21T07:50:47.322Z,10.69
2023-04-21T07:53:34.249Z,10.74
2023-04-21T07:56:21.109Z,10.79
2023-04-21T07:59:08.111Z,10.87
2023-04-21T08:01:54.997Z,10.94
2023-04-21T08:04:42.167Z,11.01
2023-04-21T08:07:29.211Z,10.63
2023-04-21T08:10:16.206Z,11.11
2023-04-21T08:13:03.307Z,11.18
2023-04-21T08:15:50.307Z,11.24
2023-04-21T08:18:37.223Z,11.31
2023-04-21T08:21:24.426Z,11.34
2023-04-21T08:24:11.538Z,11.42
2023-04-21T08:26:58.603Z,11.34
2023-04-21T08:29:45.492Z,11.53
2023-04-21T08:32:33.073Z,11.59
2023-04-21T08:35:20.064Z,11.65
2023-04-21T08:38:07.157Z,11.72
2023-04-21T08:40:56.446Z,11.78
2023-04-21T08:43:43.503Z,11.86
2023-04-21T08:46:30.490Z,11.91
2023-04-21T08:49:18.965Z,12.00
2023-04-21T08:52:07.209Z,12.08
2023-04-21T08:54:54.965Z,11.75
2023-04-21T08:57:41.915Z,12.24
2023-04-21T09:00:29.398Z,12.33
2023-04-21T09:03:25.594Z,12.41
2023-04-21T09:06:27.964Z,12.50
2023-04-21T09:09:18.688Z,12.59
2023-04-21T09:12:15.067Z,12.36
2023-04-21T09:15:03.304Z,12.60
2023-04-21T09:17:52.231Z,12.86
2023-04-21T09:20:40.907Z,12.96
2023-04-21T09:23:28.214Z,13.06
2023-04-21T09:26:15.183Z,13.03
2023-04-21T09:29:09.540Z,13.28
2023-04-21T09:31:56.445Z,13.40
2023-04-21T09:34:45.357Z,13.57
2023-04-21T09:37:34.105Z,13.57
2023-04-21T09:40:21.216Z,13.94
2023-04-21T09:43:08.089Z,14.19
2023-04-21T09:45:56.542Z,14.39
2023-04-21T09:48:44.823Z,14.18
2023-04-21T09:54:33.026Z,15.10
2023-04-21T09:57:22.206Z,15.33
2023-04-21T10:00:14.439Z,15.55
2023-04-21T10:03:05.005Z,15.72
2023-04-21T10:05:52.114Z,15.94
2023-04-21T10:08:39.970Z,16.02
2023-04-21T10:11:28.555Z,16.22
2023-04-21T10:14:15.504Z,16.34
2023-04-21T10:17:02.842Z,16.33
2023-04-21T10:19:52.607Z,16.66
2023-04-21T10:22:53.810Z,16.56
2023-04-21T10:25:40.821Z,16.90
2023-04-21T10:28:28.415Z,17.04
2023-04-21T10:31:38.301Z,17.17
2023-04-21T10:34:28.319Z,17.30
2023-04-21T10:37:15.222Z,17.41
2023-04-21T10:40:15.775Z,17.12
2023-04-21T10:43:02.892Z,17.50
2023-04-21T10:45:50.636Z,17.74
2023-04-21T10:48:42.843Z,17.87
2023-04-21T10:51:31.135Z,17.99
2023-04-21T10:54:18.989Z,18.05
2023-04-21T10:57:06.413Z,18.14
2023-04-21T10:59:55.437Z,18.25
2023-04-21T11:02:44.718Z,18.36
2023-04-21T11:05:32.472Z,18.51
2023-04-21T11:08:24.276Z,18.65
2023-04-21T11:11:14.537Z,18.81
2023-04-21T11:14:01.447Z,18.80
2023-04-21T11:16:49.265Z,19.12
2023-04-21T11:19:36.218Z,19.20
2023-04-21T11:22:24.480Z,19.24
2023-04-21T11:25:14.670Z,19.26
2023-04-21T11:28:01.678Z,19.26
2023-04-21T11:30:55.470Z,19.32
2023-04-21T11:33:42.525Z,19.45
2023-04-21T11:36:29.431Z,19.59
2023-04-21T11:39:16.478Z,19.74
2023-04-21T11:42:05.496Z,19.88
2023-04-21T11:44:55.336Z,19.98
2023-04-21T11:47:47.161Z,20.06
2023-04-21T11:50:50.592Z,20.12
2023-04-21T11:53:37.603Z,20.21
2023-04-21T11:56:25.593Z,20.23
2023-04-21T11:59:13.124Z,20.19
2023-04-21T12:02:18.293Z,20.19
2023-04-21T12:05:26.140Z,20.22
2023-04-21T12:08:16.834Z,20.15
2023-04-21T12:11:06.978Z,20.07
2023-04-21T12:13:54.192Z,20.09
2023-04-21T12:16:41.118Z,20.16
2023-04-21T12:19:28.564Z,20.26
2023-04-21T12:22:19.190Z,20.41
2023-04-21T12:25:06.654Z,20.46
2023-04-21T12:27:53.593Z,20.50
2023-04-21T12:30:42.519Z,20.44
2023-04-21T12:33:30.878Z,20.39
2023-04-21T12:36:18.078Z,20.16
2023-04-21T12:39:05.003Z,20.06
2023-04-21T12:41:52.042Z,19.73
2023-04-21T12:44:38.926Z,20.13
2023-04-21T12:47:26.505Z,20.05
2023-04-21T12:50:13.717Z,20.32
2023-04-21T12:53:00.811Z,20.35
2023-04-21T12:56:01.084Z,20.20
2023-04-21T12:58:51.557Z,20.13
2023-04-21T13:01:41.500Z,19.92
2023-04-21T13:04:29.048Z,20.13
2023-04-21T13:07:16.014Z,20.28
2023-04-21T13:10:03.224Z,20.34
2023-04-21T13:12:50.112Z,20.35
2023-04-21T13:15:37.253Z,20.28
2023-04-21T13:18:24.321Z,20.12
2023-04-21T13:21:11.465Z,20.22
2023-04-21T13:23:58.402Z,20.33
2023-04-21T13:26:45.926Z,20.35
2023-04-21T13:29:33.270Z,20.34
2023-04-21T13:32:21.895Z,20.26
2023-04-21T13:35:09.388Z,20.16
2023-04-21T13:38:01.839Z,19.95
2023-04-21T13:40:48.996Z,19.79
2023-04-21T13:43:36.384Z,19.63
2023-04-21T13:46:23.335Z,19.65
2023-04-21T13:49:10.542Z,19.55
2023-04-21T13:51:57.507Z,19.53
2023-04-21T13:54:44.686Z,19.50
2023-04-21T13:57:31.710Z,19.41
2023-04-21T14:00:19.338Z,19.24
2023-04-21T14:03:06.442Z,19.41
2023-04-21T14:05:54.003Z,19.40
2023-04-21T14:08:40.867Z,19.27
2023-04-21T14:11:27.863Z,19.15
2023-04-21T14:14:18.926Z,19.09
2023-04-21T14:17:11.801Z,19.03
2023-04-21T14:19:59.464Z,18.99
2023-04-21T14:22:46.481Z,18.94
2023-04-21T14:25:33.420Z,18.90
2023-04-21T14:28:20.425Z,18.75
2023-04-21T14:31:07.252Z,18.90
2023-04-21T14:33:54.594Z,18.87
2023-04-21T14:36:41.853Z,18.77
2023-04-21T14:39:29.052Z,18.81
2023-04-21T14:42:15.917Z,18.82
2023-04-21T14:45:03.038Z,18.80
2023-04-21T14:47:49.997Z,18.78
2023-04-21T14:50:37.134Z,18.80
2023-04-21T14:53:24.028Z,18.79
2023-04-21T14:56:11.257Z,18.73
2023-04-21T14:58:58.213Z,18.78
2023-04-21T15:01:45.199Z,18.79
2023-04-21T15:04:32.356Z,18.76
2023-04-21T15:07:24.764Z,18.74
2023-04-21T15:10:12.187Z,18.76
2023-04-21T15:12:59.239Z,18.80
2023-04-21T15:15:46.083Z,18.82
2023-04-21T15:18:33.230Z,18.86
2023-04-21T15:21:20.185Z,18.87
2023-04-21T15:24:07.352Z,18.90
2023-04-21T15:26:54.215Z,18.92
2023-04-21T15:29:41.244Z,18.92
2023-04-21T15:32:28.245Z,18.98
2023-04-21T15:35:15.259Z,19.05
2023-04-21T15:38:02.136Z,18.95
2023-04-21T15:41:00.211Z,19.05
2023-04-21T15:43:48.919Z,19.16
2023-04-21T15:46:35.982Z,19.24
2023-04-21T15:49:25.281Z,19.28
2023-04-21T15:52:13.253Z,19.31
2023-04-21T15:55:00.173Z,19.31
2023-04-21T15:57:47.362Z,19.31
2023-04-21T16:00:16.500Z,19.35
2023-04-21T16:02:43.630Z,19.44
2023-04-21T16:05:11.193Z,19.49
2023-04-21T16:07:38.360Z,19.62
2023-04-21T16:10:05.863Z,19.54
2023-04-21T16:12:32.947Z,19.77
2023-04-21T16:15:09.145Z,19.80
2023-04-21T16:17:43.348Z,19.82
2023-04-21T16:20:11.882Z,19.87
2023-04-21T16:22:38.930Z,19.93
2023-04-21T16:25:06.230Z,19.96
2023-04-21T16:27:33.452Z,20.00
2023-04-21T16:30:00.531Z,19.95
2023-04-21T16:32:28.075Z,19.90
2023-04-21T16:34:55.875Z,19.86
2023-04-21T16:37:23.661Z,19.75
2023-04-21T16:39:51.128Z,19.79
2023-04-21T16:42:18.198Z,19.76
2023-04-21T16:44:45.597Z,19.71
2023-04-21T16:47:12.778Z,19.65
2023-04-21T16:49:39.765Z,19.63
2023-04-21T16:52:06.800Z,19.61
2023-04-21T16:54:33.746Z,19.63
2023-04-21T16:57:02.371Z,19.61
2023-04-21T16:59:30.762Z,19.56
2023-04-21T17:02:18.037Z,19.53
2023-04-21T17:05:05.484Z,19.46
2023-04-21T17:07:53.454Z,19.38
2023-04-21T17:10:40.399Z,19.30
2023-04-21T17:13:27.356Z,19.05
2023-04-21T17:16:14.428Z,19.05
2023-04-21T17:19:01.585Z,18.98
2023-04-21T17:21:48.419Z,18.86
2023-04-21T17:24:51.726Z,18.71
2023-04-21T17:27:40.069Z,18.54
2023-04-21T17:30:28.274Z,18.34
2023-04-21T17:33:17.376Z,18.14
2023-04-21T17:36:04.825Z,17.94
2023-04-21T17:38:52.020Z,17.73
2023-04-21T17:41:39.162Z,17.53
2023-04-21T17:44:26.000Z,17.30
2023-04-21T17:47:13.064Z,17.12
2023-04-21T17:50:00.345Z,16.91
2023-04-21T17:52:47.277Z,16.72
2023-04-21T17:55:34.218Z,16.42
2023-04-21T17:58:21.895Z,16.36
2023-04-21T18:01:09.332Z,16.15
2023-04-21T18:03:59.270Z,15.92
2023-04-21T18:06:48.380Z,15.69
2023-04-21T18:09:35.320Z,15.44
2023-04-21T18:12:22.200Z,15.04
2023-04-21T18:15:09.234Z,15.05
2023-04-21T18:17:56.185Z,14.84
2023-04-21T18:20:43.110Z,14.81
2023-04-21T18:23:30.093Z,14.69
2023-04-21T18:26:17.117Z,14.57
2023-04-21T18:29:04.164Z,14.39
2023-04-21T18:31:51.354Z,14.34
2023-04-21T18:34:38.709Z,14.19
2023-04-21T18:37:25.833Z,14.02
2023-04-21T18:40:12.940Z,13.86
2023-04-21T18:42:59.930Z,13.66
2023-04-21T18:45:46.767Z,13.49
2023-04-21T18:48:33.872Z,13.34
2023-04-21T18:51:20.877Z,13.24
2023-04-21T18:54:07.888Z,13.15
2023-04-21T18:56:54.858Z,13.03
2023-04-21T18:59:41.868Z,12.98
2023-04-21T19:02:32.540Z,12.89
2023-04-21T19:05:19.653Z,12.83
2023-04-21T19:08:06.630Z,12.74
2023-04-21T19:10:56.788Z,12.66
2023-04-21T19:13:43.665Z,12.57
2023-04-21T19:16:31.612Z,12.42
2023-04-21T19:19:18.692Z,12.38
2023-04-21T19:22:06.065Z,12.27
2023-04-21T19:24:53.265Z,12.14
2023-04-21T19:27:40.426Z,12.03
2023-04-21T19:30:28.226Z,11.91
2023-04-21T19:33:15.618Z,11.75
2023-04-21T19:36:02.680Z,11.70
2023-04-21T19:38:49.838Z,11.60
2023-04-21T19:41:37.146Z,11.51
2023-04-21T19:44:24.416Z,11.36
2023-04-21T19:47:11.269Z,11.32
2023-04-21T19:49:58.222Z,11.21
2023-04-21T19:52:45.125Z,11.21
2023-04-21T19:55:32.378Z,11.13
2023-04-21T19:58:32.042Z,11.08
2023-04-21T20:01:26.268Z,11.00
2023-04-21T20:04:13.371Z,10.93
2023-04-21T20:07:00.430Z,10.85
2023-04-21T20:09:47.265Z,10.79
2023-04-21T20:12:34.267Z,10.70
2023-04-21T20:15:21.377Z,10.38
2023-04-21T20:18:08.476Z,10.46
2023-04-21T20:20:55.634Z,10.34
2023-04-21T20:23:42.692Z,10.46
2023-04-21T20:26:29.794Z,10.39
2023-04-21T20:29:16.698Z,10.34
2023-04-21T20:32:03.863Z,10.28
2023-04-21T20:34:50.717Z,10.23
2023-04-21T20:37:37.789Z,10.15
2023-04-21T20:40:24.897Z,10.15
2023-04-21T20:43:11.905Z,10.03
2023-04-21T20:45:59.549Z,10.06
2023-04-21T20:48:46.488Z,10.05
2023-04-21T20:51:33.351Z,10.03
2023-04-21T20:54:20.552Z,10.03
2023-04-21T20:57:08.451Z,10.04
2023-04-21T20:59:55.490Z,10.04
2023-04-21T21:02:42.394Z,10.05
2023-04-21T21:05:29.661Z,10.05
2023-04-21T21:08:16.686Z,10.06
2023-04-21T21:11:03.607Z,10.09
2023-04-21T21:13:50.491Z,10.12
2023-04-21T21:16:37.821Z,10.17
2023-04-21T21:19:24.942Z,10.20
2023-04-21T21:22:11.883Z,10.20
2023-04-21T21:24:58.706Z,10.23
2023-04-21T21:27:45.660Z,10.23
2023-04-21T21:30:32.758Z,10.19
2023-04-21T21:33:19.797Z,10.17
2023-04-21T21:36:06.761Z,10.07
2023-04-21T21:38:53.960Z,9.92
2023-04-21T21:41:40.950Z,9.91
2023-04-21T21:44:28.542Z,9.74
2023-04-21T21:47:15.393Z,9.97
2023-04-21T21:50:02.498Z,9.92
2023-04-21T21:52:49.361Z,9.87
2023-04-21T21:55:36.434Z,9.83
2023-04-21T21:58:23.711Z,9.83
2023-04-21T22:01:10.860Z,9.79
2023-04-21T22:03:57.924Z,9.74
2023-04-21T22:06:45.042Z,9.70
2023-04-21T22:09:31.822Z,9.51
2023-04-21T22:12:19.827Z,9.65
2023-04-21T22:15:06.672Z,9.64
2023-04-21T22:17:54.209Z,9.59
2023-04-21T22:20:41.289Z,9.57
2023-04-21T22:23:28.557Z,9.63
2023-04-21T22:26:15.356Z,9.60
2023-04-21T22:29:02.252Z,9.58
2023-04-21T22:31:50.161Z,9.57
2023-04-21T22:34:37.082Z,9.45
2023-04-21T22:37:23.947Z,9.45
2023-04-21T22:40:10.935Z,9.45
2023-04-21T22:42:58.041Z,9.12
2023-04-21T22:45:45.120Z,9.39
2023-04-21T22:48:32.292Z,9.34
2023-04-21T22:51:19.786Z,9.31
2023-04-21T22:54:06.850Z,9.24
2023-04-21T22:56:54.327Z,9.24
2023-04-21T22:59:41.298Z,9.15
2023-04-21T23:02:28.233Z,9.24
2023-04-21T23:05:15.214Z,9.14
2023-04-21T23:08:02.121Z,9.12
2023-04-21T23:10:50.064Z,9.11
2023-04-21T23:13:36.945Z,9.06
2023-04-21T23:16:23.900Z,9.01
2023-04-21T23:19:10.978Z,8.95
2023-04-21T23:21:58.896Z,8.56
2023-04-21T23:24:45.776Z,8.83
2023-04-21T23:27:32.691Z,8.76
2023-04-21T23:30:19.611Z,8.70
2023-04-21T23:33:06.687Z,8.63
2023-04-21T23:35:53.780Z,8.57
2023-04-21T23:38:40.873Z,8.53
2023-04-21T23:41:27.907Z,8.39
2023-04-21T23:44:15.023Z,8.45
2023-04-21T23:47:02.179Z,8.44
2023-04-21T23:49:49.443Z,8.42
2023-04-21T23:52:36.329Z,8.37
2023-04-21T23:55:23.611Z,8.21
2023-04-21T23:58:10.479Z,8.28
